sensor_id;sensor_type;location;lat;lon;timestamp;pressure;altitude;pressure_sealevel;temperature;humidity
8160;BME280;27404;52.398;9.646;2023-02-05T00:01:55;103060.88;;;-2.33;100.00
8160;BME280;27404;52.398;9.646;2023-02-05T00:04:21;103067.06;;;-2.47;100.00
8160;BME280;27404;52.398;9.646;2023-02-05T00:06:46;103064.22;;;-2.44;100.00
8160;BME280;27404;52.398;9.646;2023-02-05T00:09:12;103056.06;;;-2.42;100.00
8160;BME280;27404;52.398;9.646;2023-02-05T00:11:37;103066.28;;;-2.49;100.00
8160;BME280;27404;52.398;9.646;2023-02-05T00:14:03;103061.28;;;-2.55;100.00
8160;BME280;27404;52.398;9.646;2023-02-05T00:16:29;103057.41;;;-2.65;100.00
8160;BME280;27404;52.398;9.646;2023-02-05T00:18:55;103049.50;;;-2.53;100.00
8160;BME280;27404;52.398;9.646;2023-02-05T00:21:22;103034.31;;;-2.52;100.00
8160;BME280;27404;52.398;9.646;2023-02-05T00:23:48;103048.06;;;-2.58;100.00
8160;BME280;27404;52.398;9.646;2023-02-05T00:26:14;103044.16;;;-2.53;100.00
8160;BME280;27404;52.398;9.646;2023-02-05T00:28:41;103042.50;;;-2.39;100.00
8160;BME280;27404;52.398;9.646;2023-02-05T00:31:09;103049.84;;;-2.43;100.00
8160;BME280;27404;52.398;9.646;2023-02-05T00:33:35;103042.13;;;-2.33;100.00
8160;BME280;27404;52.398;9.646;2023-02-05T00:36:01;103041.66;;;-2.40;100.00
8160;BME280;27404;52.398;9.646;2023-02-05T00:38:26;103033.63;;;-2.56;100.00
8160;BME280;27404;52.398;9.646;2023-02-05T00:40:51;103024.38;;;-2.50;100.00
8160;BME280;27404;52.398;9.646;2023-02-05T00:43:17;103009.31;;;-2.36;100.00
8160;BME280;27404;52.398;9.646;2023-02-05T00:45:42;103012.91;;;-2.52;100.00
8160;BME280;27404;52.398;9.646;2023-02-05T00:48:08;103016.72;;;-2.56;100.00
8160;BME280;27404;52.398;9.646;2023-02-05T00:50:33;103007.66;;;-2.70;100.00
8160;BME280;27404;52.398;9.646;2023-02-05T00:52:59;103000.75;;;-2.74;100.00
8160;BME280;27404;52.398;9.646;2023-02-05T00:55:25;102996.09;;;-2.70;100.00
8160;BME280;27404;52.398;9.646;2023-02-05T00:57:50;102997.72;;;-2.68;100.00
8160;BME280;27404;52.398;9.646;2023-02-05T01:00:17;102996.00;;;-2.69;100.00
8160;BME280;27404;52.398;9.646;2023-02-05T01:02:42;102987.78;;;-2.65;100.00
8160;BME280;27404;52.398;9.646;2023-02-05T01:05:08;102986.41;;;-2.42;100.00
8160;BME280;27404;52.398;9.646;2023-02-05T01:07:34;102983.09;;;-2.62;100.00
8160;BME280;27404;52.398;9.646;2023-02-05T01:09:59;102993.78;;;-2.76;100.00
8160;BME280;27404;52.398;9.646;2023-02-05T01:12:25;102987.06;;;-2.84;100.00
8160;BME280;27404;52.398;9.646;2023-02-05T01:14:50;102981.00;;;-2.87;100.00
8160;BME280;27404;52.398;9.646;2023-02-05T01:17:16;102975.16;;;-2.94;100.00
8160;BME280;27404;52.398;9.646;2023-02-05T01:19:41;102970.94;;;-2.98;100.00
8160;BME280;27404;52.398;9.646;2023-02-05T01:22:07;102955.72;;;-2.81;100.00
8160;BME280;27404;52.398;9.646;2023-02-05T01:24:32;102950.19;;;-2.94;100.00
8160;BME280;27404;52.398;9.646;2023-02-05T01:26:58;102948.47;;;-2.95;100.00
8160;BME280;27404;52.398;9.646;2023-02-05T01:29:25;102935.28;;;-2.99;100.00
8160;BME280;27404;52.398;9.646;2023-02-05T01:31:50;102938.63;;;-2.95;100.00
8160;BME280;27404;52.398;9.646;2023-02-05T01:34:16;102943.22;;;-2.66;100.00
8160;BME280;27404;52.398;9.646;2023-02-05T01:36:42;102947.22;;;-2.74;100.00
8160;BME280;27404;52.398;9.646;2023-02-05T01:39:08;102957.44;;;-2.80;100.00
8160;BME280;27404;52.398;9.646;2023-02-05T01:41:33;102950.47;;;-2.69;100.00
8160;BME280;27404;52.398;9.646;2023-02-05T01:44:16;102942.75;;;-2.59;100.00
8160;BME280;27404;52.398;9.646;2023-02-05T01:46:45;102936.16;;;-2.68;100.00
8160;BME280;27404;52.398;9.646;2023-02-05T01:49:24;102918.75;;;-2.60;100.00
8160;BME280;27404;52.398;9.646;2023-02-05T01:51:51;102914.84;;;-2.69;100.00
8160;BME280;27404;52.398;9.646;2023-02-05T01:54:18;102916.59;;;-2.84;100.00
8160;BME280;27404;52.398;9.646;2023-02-05T01:56:56;102916.41;;;-2.81;100.00
8160;BME280;27404;52.398;9.646;2023-02-05T01:59:27;102906.22;;;-2.90;100.00
8160;BME280;27404;52.398;9.646;2023-02-05T02:01:54;102902.25;;;-2.83;100.00
8160;BME280;27404;52.398;9.646;2023-02-05T02:04:39;102907.34;;;-2.78;100.00
8160;BME280;27404;52.398;9.646;2023-02-05T02:07:07;102904.50;;;-2.75;100.00
8160;BME280;27404;52.398;9.646;2023-02-05T02:09:34;102903.78;;;-2.79;100.00
8160;BME280;27404;52.398;9.646;2023-02-05T02:12:00;102904.59;;;-2.62;100.00
8160;BME280;27404;52.398;9.646;2023-02-05T02:14:28;102904.31;;;-2.72;100.00
8160;BME280;27404;52.398;9.646;2023-02-05T02:16:56;102893.22;;;-2.66;100.00
8160;BME280;27404;52.398;9.646;2023-02-05T02:19:31;102894.81;;;-2.78;100.00
8160;BME280;27404;52.398;9.646;2023-02-05T02:28:15;102876.63;;;-2.87;100.00
8160;BME280;27404;52.398;9.646;2023-02-05T02:30:54;102873.03;;;-2.72;100.00
8160;BME280;27404;52.398;9.646;2023-02-05T02:36:11;102860.38;;;-2.84;100.00
8160;BME280;27404;52.398;9.646;2023-02-05T02:38:42;102854.84;;;-2.81;100.00
8160;BME280;27404;52.398;9.646;2023-02-05T02:41:15;102856.63;;;-2.96;100.00
8160;BME280;27404;52.398;9.646;2023-02-05T02:46:24;102845.38;;;-2.87;100.00
8160;BME280;27404;52.398;9.646;2023-02-05T02:48:54;102835.50;;;-2.86;100.00
8160;BME280;27404;52.398;9.646;2023-02-05T02:51:22;102857.34;;;-2.78;100.00
8160;BME280;27404;52.398;9.646;2023-02-05T02:53:53;102861.47;;;-2.72;100.00
8160;BME280;27404;52.398;9.646;2023-02-05T02:56:22;102861.19;;;-2.68;100.00
8160;BME280;27404;52.398;9.646;2023-02-05T02:59:03;102856.63;;;-2.51;100.00
8160;BME280;27404;52.398;9.646;2023-02-05T03:01:33;102850.31;;;-2.50;100.00
8160;BME280;27404;52.398;9.646;2023-02-05T03:04:11;102856.81;;;-2.54;100.00
8160;BME280;27404;52.398;9.646;2023-02-05T03:06:42;102865.88;;;-2.42;100.00
8160;BME280;27404;52.398;9.646;2023-02-05T03:09:17;102854.22;;;-2.27;100.00
8160;BME280;27404;52.398;9.646;2023-02-05T03:11:46;102843.78;;;-2.31;100.00
8160;BME280;27404;52.398;9.646;2023-02-05T03:14:12;102846.88;;;-2.38;100.00
8160;BME280;27404;52.398;9.646;2023-02-05T03:16:37;102843.97;;;-2.20;100.00
8160;BME280;27404;52.398;9.646;2023-02-05T03:19:03;102844.84;;;-2.19;100.00
8160;BME280;27404;52.398;9.646;2023-02-05T03:21:38;102838.81;;;-2.23;100.00
8160;BME280;27404;52.398;9.646;2023-02-05T03:24:05;102838.22;;;-2.28;100.00
8160;BME280;27404;52.398;9.646;2023-02-05T03:26:33;102849.44;;;-2.36;100.00
8160;BME280;27404;52.398;9.646;2023-02-05T03:29:02;102845.41;;;-2.14;100.00
8160;BME280;27404;52.398;9.646;2023-02-05T03:31:39;102843.47;;;-1.98;100.00
8160;BME280;27404;52.398;9.646;2023-02-05T03:35:01;102842.41;;;-1.81;100.00
8160;BME280;27404;52.398;9.646;2023-02-05T03:40:35;102843.41;;;-1.69;100.00
8160;BME280;27404;52.398;9.646;2023-02-05T03:48:41;102809.06;;;-1.49;100.00
8160;BME280;27404;52.398;9.646;2023-02-05T03:53:40;102817.75;;;-1.45;100.00
8160;BME280;27404;52.398;9.646;2023-02-05T03:56:49;102821.72;;;-1.51;100.00
8160;BME280;27404;52.398;9.646;2023-02-05T03:59:17;102812.59;;;-1.49;100.00
8160;BME280;27404;52.398;9.646;2023-02-05T04:01:44;102813.66;;;-1.51;100.00
8160;BME280;27404;52.398;9.646;2023-02-05T04:04:11;102802.38;;;-1.56;100.00
8160;BME280;27404;52.398;9.646;2023-02-05T04:06:36;102800.53;;;-1.56;100.00
8160;BME280;27404;52.398;9.646;2023-02-05T04:09:02;102802.19;;;-1.53;100.00
8160;BME280;27404;52.398;9.646;2023-02-05T04:11:28;102809.91;;;-1.49;100.00
8160;BME280;27404;52.398;9.646;2023-02-05T04:13:53;102813.09;;;-1.29;100.00
8160;BME280;27404;52.398;9.646;2023-02-05T04:16:18;102809.44;;;-1.28;100.00
8160;BME280;27404;52.398;9.646;2023-02-05T04:18:44;102809.22;;;-1.38;100.00
8160;BME280;27404;52.398;9.646;2023-02-05T04:21:09;102811.69;;;-1.35;100.00
8160;BME280;27404;52.398;9.646;2023-02-05T04:23:35;102815.22;;;-1.34;100.00
8160;BME280;27404;52.398;9.646;2023-02-05T04:26:00;102810.59;;;-1.32;100.00
8160;BME280;27404;52.398;9.646;2023-02-05T04:28:26;102811.59;;;-1.20;100.00
8160;BME280;27404;52.398;9.646;2023-02-05T04:30:51;102814.41;;;-1.09;100.00
8160;BME280;27404;52.398;9.646;2023-02-05T04:33:17;102808.63;;;-1.15;100.00
8160;BME280;27404;52.398;9.646;2023-02-05T04:35:42;102794.75;;;-1.22;100.00
8160;BME280;27404;52.398;9.646;2023-02-05T04:38:08;102801.13;;;-1.10;100.00
8160;BME280;27404;52.398;9.646;2023-02-05T04:40:33;102799.19;;;-1.08;100.00
8160;BME280;27404;52.398;9.646;2023-02-05T04:42:58;102804.13;;;-0.89;100.00
8160;BME280;27404;52.398;9.646;2023-02-05T04:45:24;102793.28;;;-0.87;100.00
8160;BME280;27404;52.398;9.646;2023-02-05T04:47:55;102794.88;;;-0.98;100.00
8160;BME280;27404;52.398;9.646;2023-02-05T04:50:21;102798.75;;;-1.02;100.00
8160;BME280;27404;52.398;9.646;2023-02-05T04:52:46;102791.00;;;-1.07;100.00
8160;BME280;27404;52.398;9.646;2023-02-05T04:55:12;102784.88;;;-1.09;100.00
8160;BME280;27404;52.398;9.646;2023-02-05T04:57:37;102782.41;;;-0.99;100.00
8160;BME280;27404;52.398;9.646;2023-02-05T05:00:03;102785.44;;;-1.03;100.00
8160;BME280;27404;52.398;9.646;2023-02-05T05:02:28;102784.81;;;-1.07;100.00
8160;BME280;27404;52.398;9.646;2023-02-05T05:04:54;102788.13;;;-1.03;100.00
8160;BME280;27404;52.398;9.646;2023-02-05T05:07:19;102789.09;;;-1.05;100.00
8160;BME280;27404;52.398;9.646;2023-02-05T05:09:45;102791.13;;;-0.95;100.00
8160;BME280;27404;52.398;9.646;2023-02-05T05:12:10;102793.59;;;-1.05;100.00
8160;BME280;27404;52.398;9.646;2023-02-05T05:14:36;102798.31;;;-0.96;100.00
8160;BME280;27404;52.398;9.646;2023-02-05T05:17:01;102790.06;;;-0.80;100.00
8160;BME280;27404;52.398;9.646;2023-02-05T05:19:27;102778.25;;;-0.90;100.00
8160;BME280;27404;52.398;9.646;2023-02-05T05:21:52;102778.25;;;-0.90;100.00
8160;BME280;27404;52.398;9.646;2023-02-05T05:24:18;102775.16;;;-0.84;100.00
8160;BME280;27404;52.398;9.646;2023-02-05T05:26:43;102773.41;;;-0.85;100.00
8160;BME280;27404;52.398;9.646;2023-02-05T05:29:12;102765.25;;;-0.83;100.00
8160;BME280;27404;52.398;9.646;2023-02-05T05:31:38;102764.81;;;-0.77;100.00
8160;BME280;27404;52.398;9.646;2023-02-05T05:34:04;102761.59;;;-0.82;100.00
8160;BME280;27404;52.398;9.646;2023-02-05T05:36:29;102759.03;;;-0.84;100.00
8160;BME280;27404;52.398;9.646;2023-02-05T05:38:55;102763.00;;;-0.90;100.00
8160;BME280;27404;52.398;9.646;2023-02-05T05:41:22;102761.69;;;-0.97;100.00
8160;BME280;27404;52.398;9.646;2023-02-05T05:44:07;102751.91;;;-0.98;100.00
8160;BME280;27404;52.398;9.646;2023-02-05T05:46:33;102747.75;;;-0.89;100.00
8160;BME280;27404;52.398;9.646;2023-02-05T05:49:00;102739.81;;;-0.78;100.00
8160;BME280;27404;52.398;9.646;2023-02-05T05:51:27;102729.06;;;-0.78;100.00
8160;BME280;27404;52.398;9.646;2023-02-05T05:53:53;102710.59;;;-0.69;100.00
8160;BME280;27404;52.398;9.646;2023-02-05T05:56:19;102707.00;;;-0.70;100.00
8160;BME280;27404;52.398;9.646;2023-02-05T05:58:45;102686.06;;;-0.65;100.00
8160;BME280;27404;52.398;9.646;2023-02-05T06:01:13;102677.47;;;-0.70;100.00
8160;BME280;27404;52.398;9.646;2023-02-05T06:03:39;102662.72;;;-0.64;100.00
8160;BME280;27404;52.398;9.646;2023-02-05T06:06:05;102670.69;;;-0.63;100.00
8160;BME280;27404;52.398;9.646;2023-02-05T06:08:31;102686.50;;;-0.71;100.00
8160;BME280;27404;52.398;9.646;2023-02-05T06:10:57;102703.50;;;-0.70;100.00
8160;BME280;27404;52.398;9.646;2023-02-05T06:13:23;102710.47;;;-0.68;100.00
8160;BME280;27404;52.398;9.646;2023-02-05T06:15:49;102718.91;;;-0.61;100.00
8160;BME280;27404;52.398;9.646;2023-02-05T06:18:15;102713.53;;;-0.61;100.00
8160;BME280;27404;52.398;9.646;2023-02-05T06:20:41;102708.09;;;-0.72;100.00
8160;BME280;27404;52.398;9.646;2023-02-05T06:23:06;102719.91;;;-0.75;100.00
8160;BME280;27404;52.398;9.646;2023-02-05T06:25:32;102722.72;;;-0.77;100.00
8160;BME280;27404;52.398;9.646;2023-02-05T06:27:57;102725.19;;;-0.73;100.00
8160;BME280;27404;52.398;9.646;2023-02-05T06:30:23;102718.41;;;-0.79;100.00
8160;BME280;27404;52.398;9.646;2023-02-05T06:32:48;102711.44;;;-0.82;100.00
8160;BME280;27404;52.398;9.646;2023-02-05T06:35:14;102718.00;;;-0.86;100.00
8160;BME280;27404;52.398;9.646;2023-02-05T06:37:39;102715.31;;;-0.86;100.00
8160;BME280;27404;52.398;9.646;2023-02-05T06:40:05;102716.91;;;-0.83;100.00
8160;BME280;27404;52.398;9.646;2023-02-05T06:42:30;102717.78;;;-0.83;100.00
8160;BME280;27404;52.398;9.646;2023-02-05T06:44:56;102709.28;;;-0.77;100.00
8160;BME280;27404;52.398;9.646;2023-02-05T06:47:21;102704.34;;;-0.70;100.00
8160;BME280;27404;52.398;9.646;2023-02-05T06:49:47;102692.75;;;-0.70;100.00
8160;BME280;27404;52.398;9.646;2023-02-05T06:52:12;102676.50;;;-0.69;100.00
8160;BME280;27404;52.398;9.646;2023-02-05T06:54:38;102683.69;;;-0.56;100.00
8160;BME280;27404;52.398;9.646;2023-02-05T06:57:03;102693.25;;;-0.52;100.00
8160;BME280;27404;52.398;9.646;2023-02-05T06:59:29;102699.13;;;-0.47;100.00
8160;BME280;27404;52.398;9.646;2023-02-05T07:01:54;102699.50;;;-0.65;100.00
8160;BME280;27404;52.398;9.646;2023-02-05T07:04:20;102696.25;;;-0.57;100.00
8160;BME280;27404;52.398;9.646;2023-02-05T07:06:45;102697.00;;;-0.55;100.00
8160;BME280;27404;52.398;9.646;2023-02-05T07:09:10;102687.66;;;-0.62;100.00
8160;BME280;27404;52.398;9.646;2023-02-05T07:11:36;102686.91;;;-0.64;100.00
8160;BME280;27404;52.398;9.646;2023-02-05T07:14:02;102678.97;;;-0.66;100.00
8160;BME280;27404;52.398;9.646;2023-02-05T07:16:29;102676.69;;;-0.59;100.00
8160;BME280;27404;52.398;9.646;2023-02-05T07:18:54;102677.41;;;-0.44;100.00
8160;BME280;27404;52.398;9.646;2023-02-05T07:21:20;102672.22;;;-0.34;100.00
8160;BME280;27404;52.398;9.646;2023-02-05T07:23:46;102674.69;;;-0.31;100.00
8160;BME280;27404;52.398;9.646;2023-02-05T07:26:14;102690.66;;;-0.17;100.00
8160;BME280;27404;52.398;9.646;2023-02-05T07:28:40;102689.69;;;-0.16;100.00
8160;BME280;27404;52.398;9.646;2023-02-05T07:31:09;102690.00;;;-0.20;100.00
8160;BME280;27404;52.398;9.646;2023-02-05T07:33:35;102700.31;;;-0.14;100.00
8160;BME280;27404;52.398;9.646;2023-02-05T07:36:06;102693.50;;;-0.07;100.00
8160;BME280;27404;52.398;9.646;2023-02-05T07:38:32;102688.25;;;-0.08;100.00
8160;BME280;27404;52.398;9.646;2023-02-05T07:40:58;102690.13;;;0.03;100.00
8160;BME280;27404;52.398;9.646;2023-02-05T07:43:23;102688.47;;;0.13;100.00
8160;BME280;27404;52.398;9.646;2023-02-05T07:45:58;102682.22;;;0.12;100.00
8160;BME280;27404;52.398;9.646;2023-02-05T07:48:24;102687.53;;;0.25;100.00
8160;BME280;27404;52.398;9.646;2023-02-05T07:50:50;102674.25;;;0.35;100.00
8160;BME280;27404;52.398;9.646;2023-02-05T07:53:15;102680.97;;;0.41;100.00
8160;BME280;27404;52.398;9.646;2023-02-05T07:55:41;102675.84;;;0.49;100.00
8160;BME280;27404;52.398;9.646;2023-02-05T07:58:06;102670.72;;;0.46;100.00
8160;BME280;27404;52.398;9.646;2023-02-05T08:00:31;102668.75;;;0.48;100.00
8160;BME280;27404;52.398;9.646;2023-02-05T08:02:57;102664.13;;;0.50;100.00
8160;BME280;27404;52.398;9.646;2023-02-05T08:05:22;102669.03;;;0.56;100.00
8160;BME280;27404;52.398;9.646;2023-02-05T08:07:48;102663.06;;;0.64;100.00
8160;BME280;27404;52.398;9.646;2023-02-05T08:10:13;102675.66;;;0.64;100.00
8160;BME280;27404;52.398;9.646;2023-02-05T08:12:39;102662.94;;;0.66;100.00
8160;BME280;27404;52.398;9.646;2023-02-05T08:15:04;102669.91;;;0.68;100.00
8160;BME280;27404;52.398;9.646;2023-02-05T08:17:30;102679.34;;;0.74;100.00
8160;BME280;27404;52.398;9.646;2023-02-05T08:19:56;102680.56;;;0.70;100.00
8160;BME280;27404;52.398;9.646;2023-02-05T08:22:22;102674.94;;;0.73;100.00
8160;BME280;27404;52.398;9.646;2023-02-05T08:24:47;102675.44;;;0.78;100.00
8160;BME280;27404;52.398;9.646;2023-02-05T08:27:13;102679.72;;;0.81;100.00
8160;BME280;27404;52.398;9.646;2023-02-05T08:29:38;102676.44;;;0.88;100.00
8160;BME280;27404;52.398;9.646;2023-02-05T08:32:04;102677.66;;;0.96;100.00
8160;BME280;27404;52.398;9.646;2023-02-05T08:34:29;102681.34;;;0.95;100.00
8160;BME280;27404;52.398;9.646;2023-02-05T08:36:55;102687.69;;;0.94;100.00
8160;BME280;27404;52.398;9.646;2023-02-05T08:39:22;102687.22;;;0.88;100.00
8160;BME280;27404;52.398;9.646;2023-02-05T08:41:47;102677.41;;;0.87;100.00
8160;BME280;27404;52.398;9.646;2023-02-05T08:44:13;102683.78;;;0.86;100.00
8160;BME280;27404;52.398;9.646;2023-02-05T08:46:38;102681.56;;;0.92;100.00
8160;BME280;27404;52.398;9.646;2023-02-05T08:49:04;102682.66;;;0.89;100.00
8160;BME280;27404;52.398;9.646;2023-02-05T08:51:29;102683.41;;;0.91;100.00
8160;BME280;27404;52.398;9.646;2023-02-05T08:53:57;102677.16;;;0.91;100.00
8160;BME280;27404;52.398;9.646;2023-02-05T08:56:24;102677.03;;;0.92;100.00
8160;BME280;27404;52.398;9.646;2023-02-05T08:58:49;102681.19;;;0.96;100.00
8160;BME280;27404;52.398;9.646;2023-02-05T09:01:16;102678.75;;;0.93;100.00
8160;BME280;27404;52.398;9.646;2023-02-05T09:03:42;102683.53;;;1.01;100.00
8160;BME280;27404;52.398;9.646;2023-02-05T09:06:11;102687.69;;;1.05;100.00
8160;BME280;27404;52.398;9.646;2023-02-05T09:08:37;102683.16;;;1.06;100.00
8160;BME280;27404;52.398;9.646;2023-02-05T09:11:03;102688.81;;;1.14;100.00
8160;BME280;27404;52.398;9.646;2023-02-05T09:13:28;102692.72;;;1.10;100.00
8160;BME280;27404;52.398;9.646;2023-02-05T09:15:54;102679.84;;;1.02;100.00
8160;BME280;27404;52.398;9.646;2023-02-05T09:18:19;102684.50;;;1.00;100.00
8160;BME280;27404;52.398;9.646;2023-02-05T09:20:48;102675.19;;;1.04;100.00
8160;BME280;27404;52.398;9.646;2023-02-05T09:23:16;102675.69;;;1.09;100.00
8160;BME280;27404;52.398;9.646;2023-02-05T09:25:42;102678.13;;;1.12;100.00
8160;BME280;27404;52.398;9.646;2023-02-05T09:28:09;102678.75;;;1.05;100.00
8160;BME280;27404;52.398;9.646;2023-02-05T09:30:36;102680.72;;;1.14;100.00
8160;BME280;27404;52.398;9.646;2023-02-05T09:33:01;102676.91;;;1.16;100.00
8160;BME280;27404;52.398;9.646;2023-02-05T09:35:26;102680.09;;;1.22;100.00
8160;BME280;27404;52.398;9.646;2023-02-05T09:37:52;102682.78;;;1.33;100.00
8160;BME280;27404;52.398;9.646;2023-02-05T09:40:20;102684.16;;;1.27;100.00
8160;BME280;27404;52.398;9.646;2023-02-05T09:45:56;102679.38;;;1.08;100.00
8160;BME280;27404;52.398;9.646;2023-02-05T09:51:09;102684.75;;;1.08;100.00
8160;BME280;27404;52.398;9.646;2023-02-05T09:53:39;102686.47;;;1.09;100.00
8160;BME280;27404;52.398;9.646;2023-02-05T09:56:08;102690.88;;;1.10;100.00
8160;BME280;27404;52.398;9.646;2023-02-05T09:58:41;102690.50;;;1.03;100.00
8160;BME280;27404;52.398;9.646;2023-02-05T10:01:26;102690.38;;;1.05;100.00
8160;BME280;27404;52.398;9.646;2023-02-05T10:03:59;102688.06;;;1.00;100.00
8160;BME280;27404;52.398;9.646;2023-02-05T10:23:51;102699.94;;;1.09;100.00
8160;BME280;27404;52.398;9.646;2023-02-05T10:26:27;102697.72;;;1.14;100.00
8160;BME280;27404;52.398;9.646;2023-02-05T10:34:57;102710.72;;;1.32;100.00
8160;BME280;27404;52.398;9.646;2023-02-05T10:40:12;102705.06;;;1.58;100.00
8160;BME280;27404;52.398;9.646;2023-02-05T10:45:25;102701.88;;;1.64;100.00
8160;BME280;27404;52.398;9.646;2023-02-05T10:53:08;102711.03;;;1.73;100.00
8160;BME280;27404;52.398;9.646;2023-02-05T10:55:35;102704.75;;;1.84;100.00
8160;BME280;27404;52.398;9.646;2023-02-05T10:58:21;102705.00;;;1.81;100.00
8160;BME280;27404;52.398;9.646;2023-02-05T11:00:48;102709.53;;;1.91;100.00
8160;BME280;27404;52.398;9.646;2023-02-05T11:03:18;102714.78;;;1.93;100.00
8160;BME280;27404;52.398;9.646;2023-02-05T11:05:46;102717.66;;;1.80;100.00
8160;BME280;27404;52.398;9.646;2023-02-05T11:08:34;102715.47;;;1.74;100.00
8160;BME280;27404;52.398;9.646;2023-02-05T11:11:00;102712.13;;;1.82;100.00
8160;BME280;27404;52.398;9.646;2023-02-05T11:13:26;102719.19;;;1.94;100.00
8160;BME280;27404;52.398;9.646;2023-02-05T11:16:04;102722.63;;;1.96;100.00
8160;BME280;27404;52.398;9.646;2023-02-05T11:18:43;102717.16;;;1.75;100.00
8160;BME280;27404;52.398;9.646;2023-02-05T11:21:10;102720.81;;;1.85;100.00
8160;BME280;27404;52.398;9.646;2023-02-05T11:23:37;102719.59;;;1.89;100.00
8160;BME280;27404;52.398;9.646;2023-02-05T11:26:18;102725.31;;;1.96;100.00
8160;BME280;27404;52.398;9.646;2023-02-05T11:28:45;102735.34;;;2.05;100.00
8160;BME280;27404;52.398;9.646;2023-02-05T11:31:31;102735.72;;;2.01;100.00
8160;BME280;27404;52.398;9.646;2023-02-05T11:36:31;102739.16;;;2.03;100.00
8160;BME280;27404;52.398;9.646;2023-02-05T11:38:57;102741.00;;;2.02;100.00
8160;BME280;27404;52.398;9.646;2023-02-05T11:41:27;102738.41;;;2.12;100.00
8160;BME280;27404;52.398;9.646;2023-02-05T11:43:54;102741.56;;;2.17;100.00
8160;BME280;27404;52.398;9.646;2023-02-05T11:46:23;102746.16;;;2.05;100.00
8160;BME280;27404;52.398;9.646;2023-02-05T11:48:56;102742.72;;;2.03;100.00
8160;BME280;27404;52.398;9.646;2023-02-05T11:54:03;102753.50;;;2.03;100.00
8160;BME280;27404;52.398;9.646;2023-02-05T11:56:30;102753.59;;;2.13;100.00
8160;BME280;27404;52.398;9.646;2023-02-05T11:59:08;102749.91;;;2.14;100.00
8160;BME280;27404;52.398;9.646;2023-02-05T12:01:41;102763.53;;;2.24;100.00
8160;BME280;27404;52.398;9.646;2023-02-05T12:06:45;102766.28;;;2.34;100.00
8160;BME280;27404;52.398;9.646;2023-02-05T12:09:20;102785.59;;;2.29;100.00
8160;BME280;27404;52.398;9.646;2023-02-05T12:17:38;102785.53;;;2.41;100.00
8160;BME280;27404;52.398;9.646;2023-02-05T12:25:27;102789.38;;;2.27;100.00
8160;BME280;27404;52.398;9.646;2023-02-05T12:31:30;102791.66;;;2.43;100.00
8160;BME280;27404;52.398;9.646;2023-02-05T12:36:40;102786.72;;;2.48;100.00
8160;BME280;27404;52.398;9.646;2023-02-05T12:39:29;102776.88;;;2.58;100.00
8160;BME280;27404;52.398;9.646;2023-02-05T12:42:28;102770.63;;;2.58;100.00
8160;BME280;27404;52.398;9.646;2023-02-05T12:45:06;102759.03;;;2.67;100.00
8160;BME280;27404;52.398;9.646;2023-02-05T12:54:16;102738.69;;;2.63;100.00
8160;BME280;27404;52.398;9.646;2023-02-05T12:59:27;102726.44;;;2.80;100.00
8160;BME280;27404;52.398;9.646;2023-02-05T13:02:00;102734.41;;;2.81;100.00
8160;BME280;27404;52.398;9.646;2023-02-05T13:04:33;102744.94;;;2.63;100.00
8160;BME280;27404;52.398;9.646;2023-02-05T13:07:13;102748.50;;;2.64;100.00
8160;BME280;27404;52.398;9.646;2023-02-05T13:09:47;102751.31;;;2.62;100.00
8160;BME280;27404;52.398;9.646;2023-02-05T13:12:17;102754.69;;;2.55;100.00
8160;BME280;27404;52.398;9.646;2023-02-05T13:14:56;102756.91;;;2.49;100.00
8160;BME280;27404;52.398;9.646;2023-02-05T13:17:29;102757.97;;;2.58;100.00
8160;BME280;27404;52.398;9.646;2023-02-05T13:19:59;102763.09;;;2.61;100.00
8160;BME280;27404;52.398;9.646;2023-02-05T13:22:47;102760.94;;;2.55;100.00
8160;BME280;27404;52.398;9.646;2023-02-05T13:25:41;102757.66;;;2.73;100.00
8160;BME280;27404;52.398;9.646;2023-02-05T13:31:08;102776.09;;;2.89;100.00
8160;BME280;27404;52.398;9.646;2023-02-05T13:33:36;102778.53;;;2.92;100.00
8160;BME280;27404;52.398;9.646;2023-02-05T13:44:51;102789.47;;;3.11;100.00
8160;BME280;27404;52.398;9.646;2023-02-05T13:58:43;102819.47;;;3.08;100.00
8160;BME280;27404;52.398;9.646;2023-02-05T14:01:20;102821.19;;;3.09;100.00
8160;BME280;27404;52.398;9.646;2023-02-05T14:03:59;102820.19;;;3.10;100.00
8160;BME280;27404;52.398;9.646;2023-02-05T14:06:29;102820.78;;;3.14;100.00
8160;BME280;27404;52.398;9.646;2023-02-05T14:09:02;102819.66;;;3.17;100.00
8160;BME280;27404;52.398;9.646;2023-02-05T14:12:03;102821.44;;;3.28;100.00
8160;BME280;27404;52.398;9.646;2023-02-05T14:14:28;102825.44;;;3.33;100.00
8160;BME280;27404;52.398;9.646;2023-02-05T14:16:56;102833.56;;;3.33;100.00
8160;BME280;27404;52.398;9.646;2023-02-05T14:28:21;102852.69;;;3.20;100.00
8160;BME280;27404;52.398;9.646;2023-02-05T14:33:04;102851.22;;;3.16;100.00
8160;BME280;27404;52.398;9.646;2023-02-05T14:35:36;102856.38;;;3.19;100.00
8160;BME280;27404;52.398;9.646;2023-02-05T14:38:26;102848.94;;;3.11;100.00
8160;BME280;27404;52.398;9.646;2023-02-05T14:41:05;102855.59;;;3.07;100.00
8160;BME280;27404;52.398;9.646;2023-02-05T14:43:36;102868.75;;;3.01;100.00
8160;BME280;27404;52.398;9.646;2023-02-05T14:46:19;102865.19;;;3.00;100.00
8160;BME280;27404;52.398;9.646;2023-02-05T14:48:46;102865.59;;;2.95;100.00
8160;BME280;27404;52.398;9.646;2023-02-05T14:51:20;102874.97;;;2.91;100.00
8160;BME280;27404;52.398;9.646;2023-02-05T14:53:58;102884.66;;;2.83;100.00
8160;BME280;27404;52.398;9.646;2023-02-05T14:56:49;102863.56;;;2.76;100.00
8160;BME280;27404;52.398;9.646;2023-02-05T14:59:25;102869.34;;;2.83;100.00
8160;BME280;27404;52.398;9.646;2023-02-05T15:01:54;102863.00;;;2.73;100.00
8160;BME280;27404;52.398;9.646;2023-02-05T15:06:53;102866.06;;;2.68;100.00
8160;BME280;27404;52.398;9.646;2023-02-05T15:09:35;102869.03;;;2.65;100.00
8160;BME280;27404;52.398;9.646;2023-02-05T15:19:48;102894.16;;;2.21;100.00
8160;BME280;27404;52.398;9.646;2023-02-05T15:22:37;102892.44;;;2.09;100.00
8160;BME280;27404;52.398;9.646;2023-02-05T15:25:13;102907.53;;;2.12;100.00
8160;BME280;27404;52.398;9.646;2023-02-05T15:27:50;102913.91;;;2.11;100.00